Pulaski, Virginia
Current Conditions -  °F | °C
As of 11:35 AM on Tuesday 27 Jan 2015 (Local Time) from KPSK Reporting Station
Clear Clear  
Wind Chill: 23°   Ceiling: Unl
Heat Index: 32°   Visibility: 10mi
Dew Point:   Wind: 12mph
Humidity: 38%   Direction: 300°WNW
Pressure: 29.84"   Gusts: NA
Location:  37.05°N, 80.78°W
Report Text: KPSK 271635Z AUTO 30010KT 10SM CLR 00/M13 A2984 RMK AO2 T00001130
Loading
Personal Weather Stations






























Interactive Weather Map New forecast layout! Learn more

10-Day Weather Forecast

Advertisements
Track Severe Weather on mobile